sensor_id;sensor_type;location;lat;lon;timestamp;P1;durP1;ratioP1;P2;durP2;ratioP2
19187;SDS011;9726;52.198;8.792;2023-02-13T00:00:16;34.77;;;21.13;;
19187;SDS011;9726;52.198;8.792;2023-02-13T00:02:44;37.30;;;21.93;;
19187;SDS011;9726;52.198;8.792;2023-02-13T00:05:12;34.77;;;22.43;;
19187;SDS011;9726;52.198;8.792;2023-02-13T00:07:39;34.60;;;21.57;;
19187;SDS011;9726;52.198;8.792;2023-02-13T00:10:07;35.37;;;22.83;;
19187;SDS011;9726;52.198;8.792;2023-02-13T00:12:35;45.93;;;24.47;;
19187;SDS011;9726;52.198;8.792;2023-02-13T00:15:02;45.10;;;23.57;;
19187;SDS011;9726;52.198;8.792;2023-02-13T00:17:30;44.30;;;25.10;;
19187;SDS011;9726;52.198;8.792;2023-02-13T00:19:58;39.40;;;22.67;;
19187;SDS011;9726;52.198;8.792;2023-02-13T00:22:25;41.70;;;24.13;;
19187;SDS011;9726;52.198;8.792;2023-02-13T00:24:53;38.70;;;23.40;;
19187;SDS011;9726;52.198;8.792;2023-02-13T00:27:20;42.00;;;24.93;;
19187;SDS011;9726;52.198;8.792;2023-02-13T00:29:47;44.63;;;23.87;;
19187;SDS011;9726;52.198;8.792;2023-02-13T00:32:15;42.00;;;24.37;;
19187;SDS011;9726;52.198;8.792;2023-02-13T00:34:42;38.90;;;23.13;;
19187;SDS011;9726;52.198;8.792;2023-02-13T00:37:10;39.93;;;23.53;;
19187;SDS011;9726;52.198;8.792;2023-02-13T00:39:37;37.97;;;23.83;;
19187;SDS011;9726;52.198;8.792;2023-02-13T00:42:05;38.93;;;23.43;;
19187;SDS011;9726;52.198;8.792;2023-02-13T00:44:32;39.00;;;23.97;;
19187;SDS011;9726;52.198;8.792;2023-02-13T00:47:00;39.77;;;23.60;;
19187;SDS011;9726;52.198;8.792;2023-02-13T00:49:27;39.17;;;22.30;;
19187;SDS011;9726;52.198;8.792;2023-02-13T00:51:54;38.10;;;23.57;;
19187;SDS011;9726;52.198;8.792;2023-02-13T00:54:22;42.57;;;23.87;;
19187;SDS011;9726;52.198;8.792;2023-02-13T00:56:49;39.03;;;23.37;;
19187;SDS011;9726;52.198;8.792;2023-02-13T00:59:16;42.90;;;25.03;;
19187;SDS011;9726;52.198;8.792;2023-02-13T01:01:44;41.70;;;23.07;;
19187;SDS011;9726;52.198;8.792;2023-02-13T01:04:12;41.77;;;23.87;;
19187;SDS011;9726;52.198;8.792;2023-02-13T01:06:39;45.50;;;26.03;;
19187;SDS011;9726;52.198;8.792;2023-02-13T01:09:07;45.17;;;24.27;;
19187;SDS011;9726;52.198;8.792;2023-02-13T01:11:35;38.47;;;23.53;;
19187;SDS011;9726;52.198;8.792;2023-02-13T01:14:03;40.90;;;24.47;;
19187;SDS011;9726;52.198;8.792;2023-02-13T01:16:30;40.87;;;24.53;;
19187;SDS011;9726;52.198;8.792;2023-02-13T01:18:58;42.17;;;23.90;;
19187;SDS011;9726;52.198;8.792;2023-02-13T01:21:25;37.67;;;23.23;;
19187;SDS011;9726;52.198;8.792;2023-02-13T01:23:53;41.10;;;22.83;;
19187;SDS011;9726;52.198;8.792;2023-02-13T01:26:21;36.37;;;22.87;;
19187;SDS011;9726;52.198;8.792;2023-02-13T01:28:53;42.97;;;23.70;;
19187;SDS011;9726;52.198;8.792;2023-02-13T01:31:20;35.60;;;23.03;;
19187;SDS011;9726;52.198;8.792;2023-02-13T01:33:49;46.83;;;25.80;;
19187;SDS011;9726;52.198;8.792;2023-02-13T01:36:20;42.90;;;24.23;;
19187;SDS011;9726;52.198;8.792;2023-02-13T01:38:47;35.77;;;23.47;;
19187;SDS011;9726;52.198;8.792;2023-02-13T01:41:18;41.57;;;23.77;;
19187;SDS011;9726;52.198;8.792;2023-02-13T01:43:50;39.30;;;24.10;;
19187;SDS011;9726;52.198;8.792;2023-02-13T01:46:23;40.37;;;23.43;;
19187;SDS011;9726;52.198;8.792;2023-02-13T01:48:53;39.30;;;22.70;;
19187;SDS011;9726;52.198;8.792;2023-02-13T01:51:26;38.47;;;21.97;;
19187;SDS011;9726;52.198;8.792;2023-02-13T01:54:06;42.13;;;22.57;;
19187;SDS011;9726;52.198;8.792;2023-02-13T01:56:36;39.47;;;23.20;;
19187;SDS011;9726;52.198;8.792;2023-02-13T01:59:09;37.60;;;20.60;;
19187;SDS011;9726;52.198;8.792;2023-02-13T02:01:37;34.30;;;19.90;;
19187;SDS011;9726;52.198;8.792;2023-02-13T02:06:47;39.53;;;18.07;;
19187;SDS011;9726;52.198;8.792;2023-02-13T02:09:25;31.17;;;16.00;;
19187;SDS011;9726;52.198;8.792;2023-02-13T02:14:39;31.10;;;16.90;;
19187;SDS011;9726;52.198;8.792;2023-02-13T02:17:08;22.37;;;13.63;;
19187;SDS011;9726;52.198;8.792;2023-02-13T02:19:41;23.33;;;13.57;;
19187;SDS011;9726;52.198;8.792;2023-02-13T02:22:18;22.83;;;12.87;;
19187;SDS011;9726;52.198;8.792;2023-02-13T02:25:00;23.43;;;12.93;;
19187;SDS011;9726;52.198;8.792;2023-02-13T02:27:39;19.40;;;11.97;;
19187;SDS011;9726;52.198;8.792;2023-02-13T02:33:17;17.80;;;10.63;;
19187;SDS011;9726;52.198;8.792;2023-02-13T02:46:11;20.73;;;11.90;;
19187;SDS011;9726;52.198;8.792;2023-02-13T02:51:52;22.90;;;10.80;;
19187;SDS011;9726;52.198;8.792;2023-02-13T02:54:24;19.77;;;11.80;;
19187;SDS011;9726;52.198;8.792;2023-02-13T02:57:15;19.97;;;10.43;;
19187;SDS011;9726;52.198;8.792;2023-02-13T02:59:51;16.80;;;10.40;;
19187;SDS011;9726;52.198;8.792;2023-02-13T03:02:37;19.20;;;11.53;;
19187;SDS011;9726;52.198;8.792;2023-02-13T03:05:26;20.60;;;11.50;;
19187;SDS011;9726;52.198;8.792;2023-02-13T03:08:14;15.43;;;9.67;;
19187;SDS011;9726;52.198;8.792;2023-02-13T03:11:04;18.70;;;9.93;;
19187;SDS011;9726;52.198;8.792;2023-02-13T03:14:10;16.80;;;9.53;;
19187;SDS011;9726;52.198;8.792;2023-02-13T03:16:39;17.47;;;10.03;;
19187;SDS011;9726;52.198;8.792;2023-02-13T03:19:37;19.03;;;11.07;;
19187;SDS011;9726;52.198;8.792;2023-02-13T03:25:01;21.87;;;9.87;;
19187;SDS011;9726;52.198;8.792;2023-02-13T03:32:51;21.93;;;10.90;;
19187;SDS011;9726;52.198;8.792;2023-02-13T03:38:14;17.67;;;10.23;;
19187;SDS011;9726;52.198;8.792;2023-02-13T03:46:17;19.57;;;11.00;;
19187;SDS011;9726;52.198;8.792;2023-02-13T03:48:45;19.07;;;10.03;;
19187;SDS011;9726;52.198;8.792;2023-02-13T03:51:35;19.77;;;11.10;;
19187;SDS011;9726;52.198;8.792;2023-02-13T03:54:04;19.87;;;11.07;;
19187;SDS011;9726;52.198;8.792;2023-02-13T03:56:33;21.80;;;11.30;;
19187;SDS011;9726;52.198;8.792;2023-02-13T03:59:23;20.57;;;11.83;;
19187;SDS011;9726;52.198;8.792;2023-02-13T04:02:00;25.23;;;12.17;;
19187;SDS011;9726;52.198;8.792;2023-02-13T04:04:32;18.87;;;10.83;;
19187;SDS011;9726;52.198;8.792;2023-02-13T04:07:02;22.63;;;12.37;;
19187;SDS011;9726;52.198;8.792;2023-02-13T04:09:31;27.13;;;13.90;;
19187;SDS011;9726;52.198;8.792;2023-02-13T04:14:42;23.17;;;11.63;;
19187;SDS011;9726;52.198;8.792;2023-02-13T04:17:18;30.03;;;12.80;;
19187;SDS011;9726;52.198;8.792;2023-02-13T04:19:49;23.37;;;12.93;;
19187;SDS011;9726;52.198;8.792;2023-02-13T04:22:16;22.57;;;10.83;;
19187;SDS011;9726;52.198;8.792;2023-02-13T04:24:44;24.87;;;11.77;;
19187;SDS011;9726;52.198;8.792;2023-02-13T04:27:12;25.67;;;12.03;;
19187;SDS011;9726;52.198;8.792;2023-02-13T04:29:40;29.07;;;13.07;;
19187;SDS011;9726;52.198;8.792;2023-02-13T04:32:11;23.80;;;11.80;;
19187;SDS011;9726;52.198;8.792;2023-02-13T04:34:39;23.20;;;13.07;;
19187;SDS011;9726;52.198;8.792;2023-02-13T04:37:06;25.83;;;12.40;;
19187;SDS011;9726;52.198;8.792;2023-02-13T04:39:34;27.27;;;13.90;;
19187;SDS011;9726;52.198;8.792;2023-02-13T04:42:01;22.73;;;12.07;;
19187;SDS011;9726;52.198;8.792;2023-02-13T04:44:28;30.00;;;14.07;;
19187;SDS011;9726;52.198;8.792;2023-02-13T04:46:56;30.77;;;14.07;;
19187;SDS011;9726;52.198;8.792;2023-02-13T04:49:23;33.90;;;16.40;;
19187;SDS011;9726;52.198;8.792;2023-02-13T04:51:50;32.13;;;16.03;;
19187;SDS011;9726;52.198;8.792;2023-02-13T04:54:18;33.37;;;16.40;;
19187;SDS011;9726;52.198;8.792;2023-02-13T04:56:45;32.70;;;17.57;;
19187;SDS011;9726;52.198;8.792;2023-02-13T04:59:13;37.00;;;17.40;;
19187;SDS011;9726;52.198;8.792;2023-02-13T05:01:40;45.37;;;17.67;;
19187;SDS011;9726;52.198;8.792;2023-02-13T05:04:07;39.50;;;17.97;;
19187;SDS011;9726;52.198;8.792;2023-02-13T05:06:36;38.17;;;18.77;;
19187;SDS011;9726;52.198;8.792;2023-02-13T05:09:04;36.37;;;18.27;;
19187;SDS011;9726;52.198;8.792;2023-02-13T05:11:31;37.03;;;20.23;;
19187;SDS011;9726;52.198;8.792;2023-02-13T05:13:58;44.43;;;19.87;;
19187;SDS011;9726;52.198;8.792;2023-02-13T05:16:26;45.57;;;20.07;;
19187;SDS011;9726;52.198;8.792;2023-02-13T05:18:53;44.15;;;23.83;;
19187;SDS011;9726;52.198;8.792;2023-02-13T05:21:21;49.17;;;21.43;;
19187;SDS011;9726;52.198;8.792;2023-02-13T05:24:07;45.20;;;21.40;;
19187;SDS011;9726;52.198;8.792;2023-02-13T05:26:34;43.93;;;21.97;;
19187;SDS011;9726;52.198;8.792;2023-02-13T05:29:02;45.47;;;21.13;;
19187;SDS011;9726;52.198;8.792;2023-02-13T05:31:49;44.37;;;21.90;;
19187;SDS011;9726;52.198;8.792;2023-02-13T05:34:18;47.00;;;21.83;;
19187;SDS011;9726;52.198;8.792;2023-02-13T05:36:46;44.87;;;19.87;;
19187;SDS011;9726;52.198;8.792;2023-02-13T05:39:13;48.37;;;21.03;;
19187;SDS011;9726;52.198;8.792;2023-02-13T05:41:42;42.53;;;19.43;;
19187;SDS011;9726;52.198;8.792;2023-02-13T05:44:10;44.03;;;22.53;;
19187;SDS011;9726;52.198;8.792;2023-02-13T05:46:38;38.67;;;18.80;;
19187;SDS011;9726;52.198;8.792;2023-02-13T05:49:06;45.83;;;20.43;;
19187;SDS011;9726;52.198;8.792;2023-02-13T05:51:34;41.30;;;20.30;;
19187;SDS011;9726;52.198;8.792;2023-02-13T05:54:02;35.93;;;18.03;;
19187;SDS011;9726;52.198;8.792;2023-02-13T05:56:29;37.23;;;18.50;;
19187;SDS011;9726;52.198;8.792;2023-02-13T05:58:57;32.70;;;16.80;;
19187;SDS011;9726;52.198;8.792;2023-02-13T06:01:25;30.53;;;17.03;;
19187;SDS011;9726;52.198;8.792;2023-02-13T06:03:52;35.03;;;15.50;;
19187;SDS011;9726;52.198;8.792;2023-02-13T06:06:19;29.70;;;15.47;;
19187;SDS011;9726;52.198;8.792;2023-02-13T06:08:48;31.43;;;15.27;;
19187;SDS011;9726;52.198;8.792;2023-02-13T06:11:16;30.57;;;14.77;;
19187;SDS011;9726;52.198;8.792;2023-02-13T06:13:44;31.37;;;16.80;;
19187;SDS011;9726;52.198;8.792;2023-02-13T06:16:11;31.63;;;14.30;;
19187;SDS011;9726;52.198;8.792;2023-02-13T06:18:39;31.33;;;15.20;;
19187;SDS011;9726;52.198;8.792;2023-02-13T06:21:06;36.80;;;15.90;;
19187;SDS011;9726;52.198;8.792;2023-02-13T06:23:33;35.20;;;14.63;;
19187;SDS011;9726;52.198;8.792;2023-02-13T06:26:02;31.07;;;16.00;;
19187;SDS011;9726;52.198;8.792;2023-02-13T06:28:29;24.80;;;12.63;;
19187;SDS011;9726;52.198;8.792;2023-02-13T06:30:57;31.50;;;15.63;;
19187;SDS011;9726;52.198;8.792;2023-02-13T06:33:26;26.60;;;13.30;;
19187;SDS011;9726;52.198;8.792;2023-02-13T06:35:53;27.80;;;14.03;;
19187;SDS011;9726;52.198;8.792;2023-02-13T06:38:20;29.20;;;13.00;;
19187;SDS011;9726;52.198;8.792;2023-02-13T06:40:48;24.53;;;13.20;;
19187;SDS011;9726;52.198;8.792;2023-02-13T06:43:16;25.07;;;14.03;;
19187;SDS011;9726;52.198;8.792;2023-02-13T06:45:44;30.00;;;13.67;;
19187;SDS011;9726;52.198;8.792;2023-02-13T06:48:12;30.07;;;13.60;;
19187;SDS011;9726;52.198;8.792;2023-02-13T06:50:40;29.17;;;13.80;;
19187;SDS011;9726;52.198;8.792;2023-02-13T06:53:07;29.60;;;15.30;;
19187;SDS011;9726;52.198;8.792;2023-02-13T06:55:35;27.53;;;13.27;;
19187;SDS011;9726;52.198;8.792;2023-02-13T06:58:04;33.97;;;14.37;;
19187;SDS011;9726;52.198;8.792;2023-02-13T07:00:32;27.83;;;14.37;;
19187;SDS011;9726;52.198;8.792;2023-02-13T07:03:00;30.33;;;14.70;;
19187;SDS011;9726;52.198;8.792;2023-02-13T07:05:29;27.27;;;13.03;;
19187;SDS011;9726;52.198;8.792;2023-02-13T07:07:56;26.80;;;11.87;;
19187;SDS011;9726;52.198;8.792;2023-02-13T07:10:24;23.10;;;11.03;;
19187;SDS011;9726;52.198;8.792;2023-02-13T07:12:51;21.93;;;11.70;;
19187;SDS011;9726;52.198;8.792;2023-02-13T07:15:31;29.47;;;13.53;;
19187;SDS011;9726;52.198;8.792;2023-02-13T07:17:59;28.87;;;12.60;;
19187;SDS011;9726;52.198;8.792;2023-02-13T07:20:27;25.73;;;12.40;;
19187;SDS011;9726;52.198;8.792;2023-02-13T07:22:57;27.17;;;12.40;;
19187;SDS011;9726;52.198;8.792;2023-02-13T07:25:25;28.37;;;13.57;;
19187;SDS011;9726;52.198;8.792;2023-02-13T07:27:52;26.50;;;12.67;;
19187;SDS011;9726;52.198;8.792;2023-02-13T07:30:20;23.20;;;12.17;;
19187;SDS011;9726;52.198;8.792;2023-02-13T07:32:47;24.63;;;13.40;;
19187;SDS011;9726;52.198;8.792;2023-02-13T07:35:14;24.87;;;12.47;;
19187;SDS011;9726;52.198;8.792;2023-02-13T07:37:42;26.27;;;13.00;;
19187;SDS011;9726;52.198;8.792;2023-02-13T07:40:09;28.47;;;13.30;;
19187;SDS011;9726;52.198;8.792;2023-02-13T07:42:37;26.20;;;13.40;;
19187;SDS011;9726;52.198;8.792;2023-02-13T07:45:05;30.97;;;13.40;;
19187;SDS011;9726;52.198;8.792;2023-02-13T07:47:33;25.37;;;13.30;;
19187;SDS011;9726;52.198;8.792;2023-02-13T07:50:01;31.80;;;13.93;;
19187;SDS011;9726;52.198;8.792;2023-02-13T07:52:28;31.73;;;13.80;;
19187;SDS011;9726;52.198;8.792;2023-02-13T07:54:56;31.60;;;12.77;;
19187;SDS011;9726;52.198;8.792;2023-02-13T07:57:23;32.30;;;13.23;;
19187;SDS011;9726;52.198;8.792;2023-02-13T07:59:50;32.43;;;13.13;;
19187;SDS011;9726;52.198;8.792;2023-02-13T08:02:18;31.97;;;13.60;;
19187;SDS011;9726;52.198;8.792;2023-02-13T08:04:45;34.90;;;14.27;;
19187;SDS011;9726;52.198;8.792;2023-02-13T08:07:13;25.60;;;13.37;;
19187;SDS011;9726;52.198;8.792;2023-02-13T08:09:42;29.47;;;13.87;;
19187;SDS011;9726;52.198;8.792;2023-02-13T08:12:28;30.37;;;12.93;;
19187;SDS011;9726;52.198;8.792;2023-02-13T08:14:58;26.03;;;12.90;;
19187;SDS011;9726;52.198;8.792;2023-02-13T08:17:25;23.83;;;12.13;;
19187;SDS011;9726;52.198;8.792;2023-02-13T08:19:53;24.33;;;12.57;;
19187;SDS011;9726;52.198;8.792;2023-02-13T08:22:20;25.20;;;12.27;;
19187;SDS011;9726;52.198;8.792;2023-02-13T08:24:48;27.50;;;12.60;;
19187;SDS011;9726;52.198;8.792;2023-02-13T08:27:15;25.23;;;11.80;;
19187;SDS011;9726;52.198;8.792;2023-02-13T08:29:42;30.23;;;12.67;;
19187;SDS011;9726;52.198;8.792;2023-02-13T08:32:10;25.10;;;13.20;;
19187;SDS011;9726;52.198;8.792;2023-02-13T08:34:38;24.53;;;12.33;;
19187;SDS011;9726;52.198;8.792;2023-02-13T08:37:05;29.63;;;13.47;;
19187;SDS011;9726;52.198;8.792;2023-02-13T08:39:32;23.20;;;12.20;;
19187;SDS011;9726;52.198;8.792;2023-02-13T08:42:00;27.33;;;12.80;;
19187;SDS011;9726;52.198;8.792;2023-02-13T08:44:27;29.50;;;13.07;;
19187;SDS011;9726;52.198;8.792;2023-02-13T08:46:54;24.13;;;11.53;;
19187;SDS011;9726;52.198;8.792;2023-02-13T08:49:22;26.30;;;12.47;;
19187;SDS011;9726;52.198;8.792;2023-02-13T08:51:49;27.80;;;12.53;;
19187;SDS011;9726;52.198;8.792;2023-02-13T08:54:17;22.70;;;12.13;;
19187;SDS011;9726;52.198;8.792;2023-02-13T08:56:44;25.57;;;11.90;;
19187;SDS011;9726;52.198;8.792;2023-02-13T08:59:11;20.57;;;11.50;;
19187;SDS011;9726;52.198;8.792;2023-02-13T09:01:39;25.53;;;12.57;;
19187;SDS011;9726;52.198;8.792;2023-02-13T09:04:07;33.27;;;13.07;;
19187;SDS011;9726;52.198;8.792;2023-02-13T09:06:34;23.83;;;12.30;;
19187;SDS011;9726;52.198;8.792;2023-02-13T09:09:03;22.30;;;11.17;;
19187;SDS011;9726;52.198;8.792;2023-02-13T09:11:31;21.83;;;11.63;;
19187;SDS011;9726;52.198;8.792;2023-02-13T09:13:58;24.53;;;11.87;;
19187;SDS011;9726;52.198;8.792;2023-02-13T09:16:25;26.53;;;12.30;;
19187;SDS011;9726;52.198;8.792;2023-02-13T09:18:53;24.90;;;12.17;;
19187;SDS011;9726;52.198;8.792;2023-02-13T09:21:21;29.73;;;12.47;;
19187;SDS011;9726;52.198;8.792;2023-02-13T09:23:49;23.07;;;11.67;;
19187;SDS011;9726;52.198;8.792;2023-02-13T09:26:17;21.37;;;11.47;;
19187;SDS011;9726;52.198;8.792;2023-02-13T09:28:46;24.87;;;12.40;;
19187;SDS011;9726;52.198;8.792;2023-02-13T09:31:15;31.27;;;12.70;;
19187;SDS011;9726;52.198;8.792;2023-02-13T09:33:43;22.57;;;11.03;;
19187;SDS011;9726;52.198;8.792;2023-02-13T09:36:14;27.30;;;11.93;;
19187;SDS011;9726;52.198;8.792;2023-02-13T09:38:45;22.20;;;11.33;;
19187;SDS011;9726;52.198;8.792;2023-02-13T09:41:20;20.57;;;12.23;;
19187;SDS011;9726;52.198;8.792;2023-02-13T09:43:50;23.93;;;11.60;;
19187;SDS011;9726;52.198;8.792;2023-02-13T09:49:04;22.63;;;12.03;;
19187;SDS011;9726;52.198;8.792;2023-02-13T09:51:33;23.80;;;12.27;;
19187;SDS011;9726;52.198;8.792;2023-02-13T09:54:01;23.87;;;11.93;;
19187;SDS011;9726;52.198;8.792;2023-02-13T09:56:34;26.63;;;13.77;;
19187;SDS011;9726;52.198;8.792;2023-02-13T09:59:12;24.13;;;12.67;;
19187;SDS011;9726;52.198;8.792;2023-02-13T10:01:43;24.13;;;11.93;;
19187;SDS011;9726;52.198;8.792;2023-02-13T10:04:17;21.27;;;12.00;;
19187;SDS011;9726;52.198;8.792;2023-02-13T10:06:48;21.60;;;12.30;;
19187;SDS011;9726;52.198;8.792;2023-02-13T10:09:34;24.50;;;11.20;;
19187;SDS011;9726;52.198;8.792;2023-02-13T10:12:07;23.73;;;12.23;;
19187;SDS011;9726;52.198;8.792;2023-02-13T10:17:20;18.03;;;11.00;;
19187;SDS011;9726;52.198;8.792;2023-02-13T10:19:50;24.70;;;12.60;;
19187;SDS011;9726;52.198;8.792;2023-02-13T10:22:22;20.17;;;12.33;;
19187;SDS011;9726;52.198;8.792;2023-02-13T10:24:54;23.63;;;11.37;;
19187;SDS011;9726;52.198;8.792;2023-02-13T10:27:24;20.60;;;12.67;;
19187;SDS011;9726;52.198;8.792;2023-02-13T10:29:55;18.37;;;10.17;;
19187;SDS011;9726;52.198;8.792;2023-02-13T10:32:45;17.57;;;10.07;;
19187;SDS011;9726;52.198;8.792;2023-02-13T10:35:18;14.63;;;8.23;;
19187;SDS011;9726;52.198;8.792;2023-02-13T10:37:50;14.83;;;8.90;;
19187;SDS011;9726;52.198;8.792;2023-02-13T10:40:18;15.07;;;8.50;;
19187;SDS011;9726;52.198;8.792;2023-02-13T10:42:51;14.60;;;9.03;;
19187;SDS011;9726;52.198;8.792;2023-02-13T10:50:28;18.60;;;9.50;;
19187;SDS011;9726;52.198;8.792;2023-02-13T10:53:04;17.83;;;8.90;;
19187;SDS011;9726;52.198;8.792;2023-02-13T11:04:10;14.60;;;9.10;;
19187;SDS011;9726;52.198;8.792;2023-02-13T11:06:42;15.67;;;9.13;;
19187;SDS011;9726;52.198;8.792;2023-02-13T11:09:12;15.50;;;9.17;;
19187;SDS011;9726;52.198;8.792;2023-02-13T11:11:40;17.50;;;9.23;;
19187;SDS011;9726;52.198;8.792;2023-02-13T11:14:10;14.03;;;8.50;;
19187;SDS011;9726;52.198;8.792;2023-02-13T11:16:39;20.00;;;8.70;;
19187;SDS011;9726;52.198;8.792;2023-02-13T11:19:13;17.40;;;9.40;;
19187;SDS011;9726;52.198;8.792;2023-02-13T11:21:43;14.93;;;8.70;;
19187;SDS011;9726;52.198;8.792;2023-02-13T11:24:18;14.77;;;9.73;;
19187;SDS011;9726;52.198;8.792;2023-02-13T11:26:49;14.70;;;8.90;;
19187;SDS011;9726;52.198;8.792;2023-02-13T11:29:20;15.70;;;9.63;;
19187;SDS011;9726;52.198;8.792;2023-02-13T11:31:59;14.53;;;9.50;;
19187;SDS011;9726;52.198;8.792;2023-02-13T11:34:28;16.73;;;9.60;;
19187;SDS011;9726;52.198;8.792;2023-02-13T11:37:13;14.37;;;8.97;;
19187;SDS011;9726;52.198;8.792;2023-02-13T11:39:42;14.13;;;8.17;;
19187;SDS011;9726;52.198;8.792;2023-02-13T11:42:11;13.70;;;7.40;;
19187;SDS011;9726;52.198;8.792;2023-02-13T11:44:40;15.87;;;9.20;;
19187;SDS011;9726;52.198;8.792;2023-02-13T11:47:08;13.30;;;8.87;;
19187;SDS011;9726;52.198;8.792;2023-02-13T11:49:36;14.67;;;8.90;;
19187;SDS011;9726;52.198;8.792;2023-02-13T11:52:05;13.57;;;8.80;;
19187;SDS011;9726;52.198;8.792;2023-02-13T11:54:41;15.17;;;9.23;;
19187;SDS011;9726;52.198;8.792;2023-02-13T11:57:19;15.07;;;9.13;;
19187;SDS011;9726;52.198;8.792;2023-02-13T11:59:48;14.73;;;8.97;;
19187;SDS011;9726;52.198;8.792;2023-02-13T12:02:17;16.13;;;9.30;;
19187;SDS011;9726;52.198;8.792;2023-02-13T12:04:46;13.63;;;8.37;;
19187;SDS011;9726;52.198;8.792;2023-02-13T12:07:21;15.73;;;9.70;;
19187;SDS011;9726;52.198;8.792;2023-02-13T12:09:53;13.70;;;8.93;;
19187;SDS011;9726;52.198;8.792;2023-02-13T12:15:24;17.10;;;9.30;;
19187;SDS011;9726;52.198;8.792;2023-02-13T12:20:26;14.67;;;8.77;;
19187;SDS011;9726;52.198;8.792;2023-02-13T12:25:34;12.70;;;7.97;;
19187;SDS011;9726;52.198;8.792;2023-02-13T12:28:15;19.37;;;9.20;;
19187;SDS011;9726;52.198;8.792;2023-02-13T12:31:01;12.97;;;7.57;;
19187;SDS011;9726;52.198;8.792;2023-02-13T12:41:27;12.57;;;7.30;;
19187;SDS011;9726;52.198;8.792;2023-02-13T12:44:16;14.67;;;8.67;;
19187;SDS011;9726;52.198;8.792;2023-02-13T12:54:32;12.50;;;8.13;;
19187;SDS011;9726;52.198;8.792;2023-02-13T13:00:18;10.07;;;6.83;;
19187;SDS011;9726;52.198;8.792;2023-02-13T13:10:33;9.73;;;7.60;;
19187;SDS011;9726;52.198;8.792;2023-02-13T13:17:59;12.67;;;7.17;;
19187;SDS011;9726;52.198;8.792;2023-02-13T13:23:10;12.30;;;7.43;;
19187;SDS011;9726;52.198;8.792;2023-02-13T13:25:51;13.23;;;7.87;;
19187;SDS011;9726;52.198;8.792;2023-02-13T13:28:23;10.70;;;7.13;;
19187;SDS011;9726;52.198;8.792;2023-02-13T13:30:52;11.60;;;7.20;;
19187;SDS011;9726;52.198;8.792;2023-02-13T13:33:21;11.33;;;7.00;;
19187;SDS011;9726;52.198;8.792;2023-02-13T13:38:44;12.80;;;7.53;;
19187;SDS011;9726;52.198;8.792;2023-02-13T13:41:18;11.30;;;7.43;;
19187;SDS011;9726;52.198;8.792;2023-02-13T13:43:56;15.33;;;6.80;;
19187;SDS011;9726;52.198;8.792;2023-02-13T13:46:41;17.57;;;6.90;;
19187;SDS011;9726;52.198;8.792;2023-02-13T13:49:55;12.43;;;6.80;;
19187;SDS011;9726;52.198;8.792;2023-02-13T13:52:10;16.17;;;6.53;;
19187;SDS011;9726;52.198;8.792;2023-02-13T13:54:45;9.80;;;6.13;;
19187;SDS011;9726;52.198;8.792;2023-02-13T13:57:25;9.33;;;5.50;;
19187;SDS011;9726;52.198;8.792;2023-02-13T13:59:55;9.80;;;6.33;;
19187;SDS011;9726;52.198;8.792;2023-02-13T14:07:32;9.63;;;5.80;;
19187;SDS011;9726;52.198;8.792;2023-02-13T14:10:00;15.60;;;5.97;;
19187;SDS011;9726;52.198;8.792;2023-02-13T14:14:56;11.10;;;4.90;;
19187;SDS011;9726;52.198;8.792;2023-02-13T14:20:19;9.63;;;5.40;;
19187;SDS011;9726;52.198;8.792;2023-02-13T14:22:47;10.13;;;5.80;;
19187;SDS011;9726;52.198;8.792;2023-02-13T14:25:25;11.90;;;5.43;;
19187;SDS011;9726;52.198;8.792;2023-02-13T14:27:57;9.40;;;5.77;;
19187;SDS011;9726;52.198;8.792;2023-02-13T14:32:53;8.23;;;5.47;;
19187;SDS011;9726;52.198;8.792;2023-02-13T14:35:25;10.93;;;4.90;;
19187;SDS011;9726;52.198;8.792;2023-02-13T14:37:56;10.47;;;5.93;;
19187;SDS011;9726;52.198;8.792;2023-02-13T14:40:45;9.67;;;5.50;;
19187;SDS011;9726;52.198;8.792;2023-02-13T14:43:20;8.50;;;5.23;;
19187;SDS011;9726;52.198;8.792;2023-02-13T14:45:53;7.97;;;5.30;;
19187;SDS011;9726;52.198;8.792;2023-02-13T14:48:24;8.73;;;5.00;;
19187;SDS011;9726;52.198;8.792;2023-02-13T14:50:54;9.23;;;5.93;;
19187;SDS011;9726;52.198;8.792;2023-02-13T14:53:25;8.30;;;5.73;;
19187;SDS011;9726;52.198;8.792;2023-02-13T14:56:12;8.70;;;5.33;;
19187;SDS011;9726;52.198;8.792;2023-02-13T14:58:43;14.40;;;6.23;;
19187;SDS011;9726;52.198;8.792;2023-02-13T15:01:30;7.00;;;4.37;;
19187;SDS011;9726;52.198;8.792;2023-02-13T15:04:04;10.50;;;4.83;;
19187;SDS011;9726;52.198;8.792;2023-02-13T15:06:37;6.50;;;4.60;;
19187;SDS011;9726;52.198;8.792;2023-02-13T15:09:13;9.10;;;4.80;;
19187;SDS011;9726;52.198;8.792;2023-02-13T15:11:42;8.87;;;4.97;;
19187;SDS011;9726;52.198;8.792;2023-02-13T15:19:33;8.83;;;4.83;;
19187;SDS011;9726;52.198;8.792;2023-02-13T15:22:03;11.70;;;5.20;;
19187;SDS011;9726;52.198;8.792;2023-02-13T15:24:35;8.77;;;5.20;;
19187;SDS011;9726;52.198;8.792;2023-02-13T15:27:05;7.00;;;4.47;;
19187;SDS011;9726;52.198;8.792;2023-02-13T15:29:33;5.87;;;4.27;;
19187;SDS011;9726;52.198;8.792;2023-02-13T15:32:19;7.93;;;4.50;;
19187;SDS011;9726;52.198;8.792;2023-02-13T15:34:47;5.33;;;4.23;;
19187;SDS011;9726;52.198;8.792;2023-02-13T15:37:21;7.17;;;4.93;;
19187;SDS011;9726;52.198;8.792;2023-02-13T15:39:49;8.33;;;4.07;;
19187;SDS011;9726;52.198;8.792;2023-02-13T15:42:17;6.80;;;3.97;;
19187;SDS011;9726;52.198;8.792;2023-02-13T15:44:45;6.47;;;4.97;;
19187;SDS011;9726;52.198;8.792;2023-02-13T15:47:31;9.17;;;5.17;;
19187;SDS011;9726;52.198;8.792;2023-02-13T15:50:00;18.20;;;5.50;;
19187;SDS011;9726;52.198;8.792;2023-02-13T15:52:31;11.07;;;5.43;;
19187;SDS011;9726;52.198;8.792;2023-02-13T15:55:01;8.20;;;4.13;;
19187;SDS011;9726;52.198;8.792;2023-02-13T15:57:28;7.57;;;5.33;;
19187;SDS011;9726;52.198;8.792;2023-02-13T15:59:56;13.93;;;7.80;;
19187;SDS011;9726;52.198;8.792;2023-02-13T16:02:27;8.13;;;5.20;;
19187;SDS011;9726;52.198;8.792;2023-02-13T16:04:56;7.80;;;5.30;;
19187;SDS011;9726;52.198;8.792;2023-02-13T16:07:23;6.93;;;5.00;;
19187;SDS011;9726;52.198;8.792;2023-02-13T16:09:51;7.87;;;5.37;;
19187;SDS011;9726;52.198;8.792;2023-02-13T16:12:22;10.20;;;5.63;;
19187;SDS011;9726;52.198;8.792;2023-02-13T16:14:51;9.57;;;5.83;;
19187;SDS011;9726;52.198;8.792;2023-02-13T16:17:38;13.30;;;6.30;;
19187;SDS011;9726;52.198;8.792;2023-02-13T16:27:51;12.00;;;6.90;;
19187;SDS011;9726;52.198;8.792;2023-02-13T16:30:33;9.30;;;6.43;;
19187;SDS011;9726;52.198;8.792;2023-02-13T16:35:42;9.63;;;6.30;;
19187;SDS011;9726;52.198;8.792;2023-02-13T16:38:26;11.33;;;7.13;;
19187;SDS011;9726;52.198;8.792;2023-02-13T16:41:36;15.43;;;8.57;;
19187;SDS011;9726;52.198;8.792;2023-02-13T16:53:56;11.50;;;8.07;;
19187;SDS011;9726;52.198;8.792;2023-02-13T16:56:24;15.33;;;9.30;;
19187;SDS011;9726;52.198;8.792;2023-02-13T17:02:01;14.97;;;7.93;;
19187;SDS011;9726;52.198;8.792;2023-02-13T17:04:29;12.80;;;7.13;;
19187;SDS011;9726;52.198;8.792;2023-02-13T17:06:56;12.47;;;8.37;;
19187;SDS011;9726;52.198;8.792;2023-02-13T17:09:23;14.60;;;7.57;;
19187;SDS011;9726;52.198;8.792;2023-02-13T17:11:51;12.83;;;8.80;;
19187;SDS011;9726;52.198;8.792;2023-02-13T17:14:19;17.03;;;9.17;;
19187;SDS011;9726;52.198;8.792;2023-02-13T17:16:47;13.60;;;8.77;;
19187;SDS011;9726;52.198;8.792;2023-02-13T17:19:14;15.60;;;8.93;;
19187;SDS011;9726;52.198;8.792;2023-02-13T17:21:42;13.50;;;8.90;;
19187;SDS011;9726;52.198;8.792;2023-02-13T17:24:13;16.10;;;8.23;;
19187;SDS011;9726;52.198;8.792;2023-02-13T17:26:43;18.83;;;9.93;;
19187;SDS011;9726;52.198;8.792;2023-02-13T17:29:10;13.67;;;9.00;;